sensor_id;sensor_type;location;lat;lon;timestamp;P1;durP1;ratioP1;P2;durP2;ratioP2
7199;SDS011;3641;49.082;8.200;2023-04-25T00:02:15;5.38;;;3.53;;
7199;SDS011;3641;49.082;8.200;2023-04-25T00:04:41;5.10;;;3.63;;
7199;SDS011;3641;49.082;8.200;2023-04-25T00:07:08;5.38;;;3.80;;
7199;SDS011;3641;49.082;8.200;2023-04-25T00:09:36;5.35;;;3.50;;
7199;SDS011;3641;49.082;8.200;2023-04-25T00:12:03;7.05;;;4.07;;
7199;SDS011;3641;49.082;8.200;2023-04-25T00:14:30;7.18;;;4.20;;
7199;SDS011;3641;49.082;8.200;2023-04-25T00:16:58;7.38;;;4.00;;
7199;SDS011;3641;49.082;8.200;2023-04-25T00:19:25;6.90;;;4.20;;
7199;SDS011;3641;49.082;8.200;2023-04-25T00:21:53;6.22;;;4.25;;
7199;SDS011;3641;49.082;8.200;2023-04-25T00:24:19;5.85;;;3.88;;
7199;SDS011;3641;49.082;8.200;2023-04-25T00:26:47;7.10;;;4.50;;
7199;SDS011;3641;49.082;8.200;2023-04-25T00:29:14;6.63;;;3.85;;
7199;SDS011;3641;49.082;8.200;2023-04-25T00:31:40;6.18;;;4.30;;
7199;SDS011;3641;49.082;8.200;2023-04-25T00:34:07;6.53;;;4.50;;
7199;SDS011;3641;49.082;8.200;2023-04-25T00:36:34;9.32;;;3.85;;
7199;SDS011;3641;49.082;8.200;2023-04-25T00:39:01;6.13;;;4.13;;
7199;SDS011;3641;49.082;8.200;2023-04-25T00:41:29;6.35;;;3.85;;
7199;SDS011;3641;49.082;8.200;2023-04-25T00:43:57;6.70;;;3.97;;
7199;SDS011;3641;49.082;8.200;2023-04-25T00:46:24;6.70;;;3.97;;
7199;SDS011;3641;49.082;8.200;2023-04-25T00:48:50;7.05;;;3.78;;
7199;SDS011;3641;49.082;8.200;2023-04-25T00:51:19;6.05;;;3.83;;
7199;SDS011;3641;49.082;8.200;2023-04-25T00:53:46;6.40;;;3.88;;
7199;SDS011;3641;49.082;8.200;2023-04-25T00:56:14;6.85;;;3.75;;
7199;SDS011;3641;49.082;8.200;2023-04-25T00:58:42;6.00;;;3.55;;
7199;SDS011;3641;49.082;8.200;2023-04-25T01:01:09;6.80;;;3.90;;
7199;SDS011;3641;49.082;8.200;2023-04-25T01:03:38;5.47;;;3.75;;
7199;SDS011;3641;49.082;8.200;2023-04-25T01:06:06;5.55;;;3.58;;
7199;SDS011;3641;49.082;8.200;2023-04-25T01:08:34;6.47;;;3.63;;
7199;SDS011;3641;49.082;8.200;2023-04-25T01:11:00;7.43;;;4.10;;
7199;SDS011;3641;49.082;8.200;2023-04-25T01:13:27;6.50;;;3.97;;
7199;SDS011;3641;49.082;8.200;2023-04-25T01:15:55;7.70;;;4.03;;
7199;SDS011;3641;49.082;8.200;2023-04-25T01:18:22;7.22;;;4.13;;
7199;SDS011;3641;49.082;8.200;2023-04-25T01:20:49;5.93;;;3.92;;
7199;SDS011;3641;49.082;8.200;2023-04-25T01:23:19;6.55;;;3.63;;
7199;SDS011;3641;49.082;8.200;2023-04-25T01:25:45;6.85;;;3.85;;
7199;SDS011;3641;49.082;8.200;2023-04-25T01:28:13;6.65;;;3.72;;
7199;SDS011;3641;49.082;8.200;2023-04-25T01:30:39;6.07;;;4.35;;
7199;SDS011;3641;49.082;8.200;2023-04-25T01:33:07;5.85;;;3.90;;
7199;SDS011;3641;49.082;8.200;2023-04-25T01:35:34;8.43;;;4.40;;
7199;SDS011;3641;49.082;8.200;2023-04-25T01:38:00;5.95;;;3.88;;
7199;SDS011;3641;49.082;8.200;2023-04-25T01:40:28;6.95;;;3.90;;
7199;SDS011;3641;49.082;8.200;2023-04-25T01:42:55;5.70;;;3.72;;
7199;SDS011;3641;49.082;8.200;2023-04-25T01:45:21;5.70;;;3.78;;
7199;SDS011;3641;49.082;8.200;2023-04-25T01:47:48;7.95;;;4.28;;
7199;SDS011;3641;49.082;8.200;2023-04-25T01:50:15;6.57;;;4.13;;
7199;SDS011;3641;49.082;8.200;2023-04-25T01:52:42;6.32;;;4.03;;
7199;SDS011;3641;49.082;8.200;2023-04-25T01:55:09;7.43;;;4.10;;
7199;SDS011;3641;49.082;8.200;2023-04-25T01:57:37;7.57;;;4.25;;
7199;SDS011;3641;49.082;8.200;2023-04-25T02:00:05;5.90;;;4.13;;
7199;SDS011;3641;49.082;8.200;2023-04-25T02:02:33;6.32;;;4.38;;
7199;SDS011;3641;49.082;8.200;2023-04-25T02:05:00;8.15;;;4.30;;
7199;SDS011;3641;49.082;8.200;2023-04-25T02:07:26;8.40;;;5.22;;
7199;SDS011;3641;49.082;8.200;2023-04-25T02:09:53;7.05;;;4.53;;
7199;SDS011;3641;49.082;8.200;2023-04-25T02:12:19;8.93;;;4.50;;
7199;SDS011;3641;49.082;8.200;2023-04-25T02:14:47;6.97;;;4.85;;
7199;SDS011;3641;49.082;8.200;2023-04-25T02:17:14;13.60;;;5.68;;
7199;SDS011;3641;49.082;8.200;2023-04-25T02:19:41;7.40;;;5.00;;
7199;SDS011;3641;49.082;8.200;2023-04-25T02:22:07;8.35;;;4.82;;
7199;SDS011;3641;49.082;8.200;2023-04-25T02:24:34;9.68;;;5.30;;
7199;SDS011;3641;49.082;8.200;2023-04-25T02:27:00;7.55;;;4.75;;
7199;SDS011;3641;49.082;8.200;2023-04-25T02:29:27;9.48;;;5.40;;
7199;SDS011;3641;49.082;8.200;2023-04-25T02:31:55;8.30;;;5.47;;
7199;SDS011;3641;49.082;8.200;2023-04-25T02:34:21;9.48;;;5.43;;
7199;SDS011;3641;49.082;8.200;2023-04-25T02:36:48;9.73;;;5.50;;
7199;SDS011;3641;49.082;8.200;2023-04-25T02:39:15;9.32;;;5.45;;
7199;SDS011;3641;49.082;8.200;2023-04-25T02:41:42;9.90;;;5.18;;
7199;SDS011;3641;49.082;8.200;2023-04-25T02:44:08;9.13;;;5.70;;
7199;SDS011;3641;49.082;8.200;2023-04-25T02:46:35;9.18;;;5.50;;
7199;SDS011;3641;49.082;8.200;2023-04-25T02:49:02;8.15;;;5.18;;
7199;SDS011;3641;49.082;8.200;2023-04-25T02:51:30;7.72;;;5.43;;
7199;SDS011;3641;49.082;8.200;2023-04-25T02:53:56;7.93;;;5.22;;
7199;SDS011;3641;49.082;8.200;2023-04-25T02:56:23;10.15;;;5.90;;
7199;SDS011;3641;49.082;8.200;2023-04-25T02:58:52;9.27;;;5.18;;
7199;SDS011;3641;49.082;8.200;2023-04-25T03:01:18;9.80;;;5.95;;
7199;SDS011;3641;49.082;8.200;2023-04-25T03:03:45;8.40;;;5.80;;
7199;SDS011;3641;49.082;8.200;2023-04-25T03:06:13;10.05;;;5.50;;
7199;SDS011;3641;49.082;8.200;2023-04-25T03:08:39;11.55;;;5.70;;
7199;SDS011;3641;49.082;8.200;2023-04-25T03:11:06;9.25;;;6.13;;
7199;SDS011;3641;49.082;8.200;2023-04-25T03:13:32;9.38;;;5.93;;
7199;SDS011;3641;49.082;8.200;2023-04-25T03:15:59;9.15;;;5.85;;
7199;SDS011;3641;49.082;8.200;2023-04-25T03:18:25;8.70;;;5.95;;
7199;SDS011;3641;49.082;8.200;2023-04-25T03:20:52;7.53;;;5.28;;
7199;SDS011;3641;49.082;8.200;2023-04-25T03:23:20;9.00;;;5.38;;
7199;SDS011;3641;49.082;8.200;2023-04-25T03:25:46;14.48;;;6.50;;
7199;SDS011;3641;49.082;8.200;2023-04-25T03:28:13;10.52;;;5.78;;
7199;SDS011;3641;49.082;8.200;2023-04-25T03:30:39;12.75;;;6.13;;
7199;SDS011;3641;49.082;8.200;2023-04-25T03:33:06;8.10;;;5.63;;
7199;SDS011;3641;49.082;8.200;2023-04-25T03:35:32;11.95;;;5.88;;
7199;SDS011;3641;49.082;8.200;2023-04-25T03:37:58;9.43;;;6.05;;
7199;SDS011;3641;49.082;8.200;2023-04-25T03:40:26;7.55;;;5.32;;
7199;SDS011;3641;49.082;8.200;2023-04-25T03:42:53;9.40;;;5.80;;
7199;SDS011;3641;49.082;8.200;2023-04-25T03:45:19;10.20;;;6.00;;
7199;SDS011;3641;49.082;8.200;2023-04-25T03:47:45;9.40;;;5.85;;
7199;SDS011;3641;49.082;8.200;2023-04-25T03:50:12;8.27;;;5.75;;
7199;SDS011;3641;49.082;8.200;2023-04-25T03:52:38;8.27;;;5.78;;
7199;SDS011;3641;49.082;8.200;2023-04-25T03:55:05;8.85;;;5.60;;
7199;SDS011;3641;49.082;8.200;2023-04-25T03:57:33;9.10;;;5.78;;
7199;SDS011;3641;49.082;8.200;2023-04-25T04:00:00;9.35;;;6.20;;
7199;SDS011;3641;49.082;8.200;2023-04-25T04:02:26;9.05;;;6.13;;
7199;SDS011;3641;49.082;8.200;2023-04-25T04:04:53;9.88;;;5.70;;
7199;SDS011;3641;49.082;8.200;2023-04-25T04:07:20;10.68;;;6.80;;
7199;SDS011;3641;49.082;8.200;2023-04-25T04:09:47;11.00;;;5.90;;
7199;SDS011;3641;49.082;8.200;2023-04-25T04:12:13;8.43;;;5.70;;
7199;SDS011;3641;49.082;8.200;2023-04-25T04:14:41;9.35;;;6.03;;
7199;SDS011;3641;49.082;8.200;2023-04-25T04:17:08;9.07;;;5.63;;
7199;SDS011;3641;49.082;8.200;2023-04-25T04:19:34;7.65;;;5.25;;
7199;SDS011;3641;49.082;8.200;2023-04-25T04:22:01;12.18;;;6.47;;
7199;SDS011;3641;49.082;8.200;2023-04-25T04:24:27;9.82;;;5.57;;
7199;SDS011;3641;49.082;8.200;2023-04-25T04:26:54;9.57;;;6.18;;
7199;SDS011;3641;49.082;8.200;2023-04-25T04:29:20;8.02;;;5.47;;
7199;SDS011;3641;49.082;8.200;2023-04-25T04:31:48;9.05;;;5.60;;
7199;SDS011;3641;49.082;8.200;2023-04-25T04:34:15;8.40;;;5.70;;
7199;SDS011;3641;49.082;8.200;2023-04-25T04:36:42;8.95;;;5.93;;
7199;SDS011;3641;49.082;8.200;2023-04-25T04:39:10;9.00;;;6.40;;
7199;SDS011;3641;49.082;8.200;2023-04-25T04:41:36;9.38;;;6.05;;
7199;SDS011;3641;49.082;8.200;2023-04-25T04:44:03;8.48;;;5.57;;
7199;SDS011;3641;49.082;8.200;2023-04-25T04:46:29;9.75;;;5.90;;
7199;SDS011;3641;49.082;8.200;2023-04-25T04:48:57;11.23;;;5.95;;
7199;SDS011;3641;49.082;8.200;2023-04-25T04:51:24;9.45;;;5.82;;
7199;SDS011;3641;49.082;8.200;2023-04-25T04:53:50;10.65;;;6.00;;
7199;SDS011;3641;49.082;8.200;2023-04-25T04:56:17;9.75;;;6.32;;
7199;SDS011;3641;49.082;8.200;2023-04-25T04:58:45;10.15;;;5.93;;
7199;SDS011;3641;49.082;8.200;2023-04-25T05:01:13;10.70;;;6.43;;
7199;SDS011;3641;49.082;8.200;2023-04-25T05:03:41;10.73;;;6.38;;
7199;SDS011;3641;49.082;8.200;2023-04-25T05:06:08;8.18;;;5.78;;
7199;SDS011;3641;49.082;8.200;2023-04-25T05:08:35;11.30;;;6.40;;
7199;SDS011;3641;49.082;8.200;2023-04-25T05:11:02;8.98;;;5.35;;
7199;SDS011;3641;49.082;8.200;2023-04-25T05:13:29;10.63;;;6.15;;
7199;SDS011;3641;49.082;8.200;2023-04-25T05:15:55;11.27;;;6.13;;
7199;SDS011;3641;49.082;8.200;2023-04-25T05:18:21;10.52;;;6.18;;
7199;SDS011;3641;49.082;8.200;2023-04-25T05:20:48;8.82;;;6.03;;
7199;SDS011;3641;49.082;8.200;2023-04-25T05:23:16;9.23;;;6.13;;
7199;SDS011;3641;49.082;8.200;2023-04-25T05:25:42;8.82;;;5.72;;
7199;SDS011;3641;49.082;8.200;2023-04-25T05:28:09;9.98;;;6.20;;
7199;SDS011;3641;49.082;8.200;2023-04-25T05:30:36;11.80;;;5.85;;
7199;SDS011;3641;49.082;8.200;2023-04-25T05:33:03;11.55;;;6.00;;
7199;SDS011;3641;49.082;8.200;2023-04-25T05:35:29;11.10;;;6.07;;
7199;SDS011;3641;49.082;8.200;2023-04-25T05:37:56;9.18;;;5.70;;
7199;SDS011;3641;49.082;8.200;2023-04-25T05:40:23;8.60;;;5.55;;
7199;SDS011;3641;49.082;8.200;2023-04-25T05:42:50;11.00;;;6.40;;
7199;SDS011;3641;49.082;8.200;2023-04-25T05:45:17;13.18;;;6.50;;
7199;SDS011;3641;49.082;8.200;2023-04-25T05:47:43;8.50;;;5.90;;
7199;SDS011;3641;49.082;8.200;2023-04-25T05:50:10;7.60;;;5.40;;
7199;SDS011;3641;49.082;8.200;2023-04-25T05:52:36;10.30;;;5.93;;
7199;SDS011;3641;49.082;8.200;2023-04-25T05:55:03;7.70;;;5.15;;
7199;SDS011;3641;49.082;8.200;2023-04-25T05:57:32;10.95;;;6.15;;
7199;SDS011;3641;49.082;8.200;2023-04-25T05:59:58;10.90;;;5.78;;
7199;SDS011;3641;49.082;8.200;2023-04-25T06:02:25;9.15;;;6.03;;
7199;SDS011;3641;49.082;8.200;2023-04-25T06:04:51;12.73;;;6.47;;
7199;SDS011;3641;49.082;8.200;2023-04-25T06:07:18;11.82;;;6.80;;
7199;SDS011;3641;49.082;8.200;2023-04-25T06:09:45;9.13;;;6.32;;
7199;SDS011;3641;49.082;8.200;2023-04-25T06:12:12;10.52;;;6.35;;
7199;SDS011;3641;49.082;8.200;2023-04-25T06:14:40;12.20;;;6.90;;
7199;SDS011;3641;49.082;8.200;2023-04-25T06:17:06;8.75;;;6.00;;
7199;SDS011;3641;49.082;8.200;2023-04-25T06:19:33;9.95;;;6.53;;
7199;SDS011;3641;49.082;8.200;2023-04-25T06:22:00;10.82;;;7.03;;
7199;SDS011;3641;49.082;8.200;2023-04-25T06:24:27;12.07;;;7.47;;
7199;SDS011;3641;49.082;8.200;2023-04-25T06:26:53;14.68;;;8.07;;
7199;SDS011;3641;49.082;8.200;2023-04-25T06:29:20;14.13;;;8.57;;
7199;SDS011;3641;49.082;8.200;2023-04-25T06:31:48;12.45;;;8.55;;
7199;SDS011;3641;49.082;8.200;2023-04-25T06:34:14;14.75;;;8.80;;
7199;SDS011;3641;49.082;8.200;2023-04-25T06:36:41;13.38;;;8.48;;
7199;SDS011;3641;49.082;8.200;2023-04-25T06:39:09;14.23;;;8.95;;
7199;SDS011;3641;49.082;8.200;2023-04-25T06:41:35;15.35;;;9.52;;
7199;SDS011;3641;49.082;8.200;2023-04-25T06:44:02;17.40;;;12.02;;
7199;SDS011;3641;49.082;8.200;2023-04-25T06:46:28;15.20;;;10.48;;
7199;SDS011;3641;49.082;8.200;2023-04-25T06:48:56;17.17;;;10.38;;
7199;SDS011;3641;49.082;8.200;2023-04-25T06:51:23;19.05;;;10.55;;
7199;SDS011;3641;49.082;8.200;2023-04-25T06:53:49;15.00;;;10.70;;
7199;SDS011;3641;49.082;8.200;2023-04-25T06:56:16;19.17;;;10.88;;
7199;SDS011;3641;49.082;8.200;2023-04-25T06:58:42;17.90;;;11.73;;
7199;SDS011;3641;49.082;8.200;2023-04-25T07:01:08;18.20;;;11.43;;
7199;SDS011;3641;49.082;8.200;2023-04-25T07:03:35;19.60;;;12.82;;
7199;SDS011;3641;49.082;8.200;2023-04-25T07:06:03;20.13;;;11.65;;
7199;SDS011;3641;49.082;8.200;2023-04-25T07:08:30;21.75;;;12.32;;
7199;SDS011;3641;49.082;8.200;2023-04-25T07:10:56;18.23;;;11.90;;
7199;SDS011;3641;49.082;8.200;2023-04-25T07:13:23;21.02;;;12.38;;
7199;SDS011;3641;49.082;8.200;2023-04-25T07:15:50;21.60;;;12.75;;
7199;SDS011;3641;49.082;8.200;2023-04-25T07:18:16;19.52;;;13.18;;
7199;SDS011;3641;49.082;8.200;2023-04-25T07:20:43;21.63;;;13.13;;
7199;SDS011;3641;49.082;8.200;2023-04-25T07:23:10;23.85;;;14.50;;
7199;SDS011;3641;49.082;8.200;2023-04-25T07:25:37;22.92;;;14.10;;
7199;SDS011;3641;49.082;8.200;2023-04-25T07:28:03;22.20;;;13.63;;
7199;SDS011;3641;49.082;8.200;2023-04-25T07:30:30;24.48;;;14.55;;
7199;SDS011;3641;49.082;8.200;2023-04-25T07:32:57;23.88;;;14.70;;
7199;SDS011;3641;49.082;8.200;2023-04-25T07:35:23;26.92;;;16.45;;
7199;SDS011;3641;49.082;8.200;2023-04-25T07:37:50;24.23;;;13.90;;
7199;SDS011;3641;49.082;8.200;2023-04-25T07:40:18;25.95;;;15.63;;
7199;SDS011;3641;49.082;8.200;2023-04-25T07:42:44;25.50;;;15.35;;
7199;SDS011;3641;49.082;8.200;2023-04-25T07:45:11;21.50;;;14.23;;
7199;SDS011;3641;49.082;8.200;2023-04-25T07:47:37;25.20;;;15.57;;
7199;SDS011;3641;49.082;8.200;2023-04-25T07:50:04;24.63;;;14.68;;
7199;SDS011;3641;49.082;8.200;2023-04-25T07:52:31;25.67;;;15.98;;
7199;SDS011;3641;49.082;8.200;2023-04-25T07:54:58;24.95;;;15.00;;
7199;SDS011;3641;49.082;8.200;2023-04-25T07:57:26;25.55;;;15.35;;
7199;SDS011;3641;49.082;8.200;2023-04-25T07:59:53;27.05;;;14.93;;
7199;SDS011;3641;49.082;8.200;2023-04-25T08:02:19;24.17;;;14.55;;
7199;SDS011;3641;49.082;8.200;2023-04-25T08:04:46;25.83;;;15.50;;
7199;SDS011;3641;49.082;8.200;2023-04-25T08:07:14;23.20;;;14.98;;
7199;SDS011;3641;49.082;8.200;2023-04-25T08:09:41;24.80;;;14.90;;
7199;SDS011;3641;49.082;8.200;2023-04-25T08:12:07;22.92;;;14.70;;
7199;SDS011;3641;49.082;8.200;2023-04-25T08:14:35;21.95;;;14.00;;
7199;SDS011;3641;49.082;8.200;2023-04-25T08:17:02;24.23;;;14.55;;
7199;SDS011;3641;49.082;8.200;2023-04-25T08:19:29;22.55;;;13.75;;
7199;SDS011;3641;49.082;8.200;2023-04-25T08:21:56;27.20;;;14.07;;
7199;SDS011;3641;49.082;8.200;2023-04-25T08:24:22;24.50;;;14.45;;
7199;SDS011;3641;49.082;8.200;2023-04-25T08:26:49;20.55;;;13.40;;
7199;SDS011;3641;49.082;8.200;2023-04-25T08:29:17;21.63;;;13.15;;
7199;SDS011;3641;49.082;8.200;2023-04-25T08:31:45;21.50;;;12.32;;
7199;SDS011;3641;49.082;8.200;2023-04-25T08:34:11;18.25;;;11.80;;
7199;SDS011;3641;49.082;8.200;2023-04-25T08:36:38;19.98;;;13.00;;
7199;SDS011;3641;49.082;8.200;2023-04-25T08:39:04;17.70;;;12.13;;
7199;SDS011;3641;49.082;8.200;2023-04-25T08:41:32;17.83;;;11.70;;
7199;SDS011;3641;49.082;8.200;2023-04-25T08:43:58;20.63;;;12.07;;
7199;SDS011;3641;49.082;8.200;2023-04-25T08:46:26;22.42;;;12.75;;
7199;SDS011;3641;49.082;8.200;2023-04-25T08:48:55;21.67;;;11.98;;
7199;SDS011;3641;49.082;8.200;2023-04-25T08:51:27;20.23;;;12.95;;
7199;SDS011;3641;49.082;8.200;2023-04-25T08:53:57;19.85;;;12.60;;
7199;SDS011;3641;49.082;8.200;2023-04-25T08:56:34;20.45;;;13.65;;
7199;SDS011;3641;49.082;8.200;2023-04-25T08:59:01;17.95;;;11.63;;
7199;SDS011;3641;49.082;8.200;2023-04-25T09:01:28;20.15;;;12.30;;
7199;SDS011;3641;49.082;8.200;2023-04-25T09:03:55;19.52;;;13.00;;
7199;SDS011;3641;49.082;8.200;2023-04-25T09:06:23;19.88;;;12.07;;
7199;SDS011;3641;49.082;8.200;2023-04-25T09:08:51;17.95;;;11.63;;
7199;SDS011;3641;49.082;8.200;2023-04-25T09:11:17;20.75;;;12.60;;
7199;SDS011;3641;49.082;8.200;2023-04-25T09:13:44;17.25;;;11.98;;
7199;SDS011;3641;49.082;8.200;2023-04-25T09:16:11;22.60;;;12.43;;
7199;SDS011;3641;49.082;8.200;2023-04-25T09:18:39;23.92;;;12.75;;
7199;SDS011;3641;49.082;8.200;2023-04-25T09:21:08;20.60;;;13.68;;
7199;SDS011;3641;49.082;8.200;2023-04-25T09:23:38;22.38;;;13.68;;
7199;SDS011;3641;49.082;8.200;2023-04-25T09:26:06;24.63;;;15.32;;
7199;SDS011;3641;49.082;8.200;2023-04-25T09:28:34;25.25;;;14.05;;
7199;SDS011;3641;49.082;8.200;2023-04-25T09:31:02;24.10;;;13.13;;
7199;SDS011;3641;49.082;8.200;2023-04-25T09:33:30;25.15;;;13.95;;
7199;SDS011;3641;49.082;8.200;2023-04-25T09:36:01;27.63;;;14.40;;
7199;SDS011;3641;49.082;8.200;2023-04-25T09:38:31;26.77;;;14.27;;
7199;SDS011;3641;49.082;8.200;2023-04-25T09:40:58;24.98;;;13.98;;
7199;SDS011;3641;49.082;8.200;2023-04-25T09:43:25;25.67;;;14.05;;
7199;SDS011;3641;49.082;8.200;2023-04-25T09:45:53;30.67;;;15.65;;
7199;SDS011;3641;49.082;8.200;2023-04-25T09:48:24;28.90;;;14.00;;
7199;SDS011;3641;49.082;8.200;2023-04-25T09:51:03;27.77;;;14.45;;
7199;SDS011;3641;49.082;8.200;2023-04-25T09:53:32;27.63;;;15.02;;
7199;SDS011;3641;49.082;8.200;2023-04-25T09:55:59;26.85;;;14.13;;
7199;SDS011;3641;49.082;8.200;2023-04-25T09:58:26;29.13;;;15.55;;
7199;SDS011;3641;49.082;8.200;2023-04-25T10:00:56;34.25;;;13.65;;
7199;SDS011;3641;49.082;8.200;2023-04-25T10:03:25;30.13;;;13.13;;
7199;SDS011;3641;49.082;8.200;2023-04-25T10:05:55;25.58;;;11.32;;
7199;SDS011;3641;49.082;8.200;2023-04-25T10:08:25;35.08;;;13.07;;
7199;SDS011;3641;49.082;8.200;2023-04-25T10:10:56;30.83;;;12.75;;
7199;SDS011;3641;49.082;8.200;2023-04-25T10:13:23;25.38;;;11.65;;
7199;SDS011;3641;49.082;8.200;2023-04-25T10:15:50;32.53;;;13.00;;
7199;SDS011;3641;49.082;8.200;2023-04-25T10:18:18;29.40;;;12.77;;
7199;SDS011;3641;49.082;8.200;2023-04-25T10:20:44;21.67;;;11.85;;
7199;SDS011;3641;49.082;8.200;2023-04-25T10:23:13;30.15;;;13.57;;
7199;SDS011;3641;49.082;8.200;2023-04-25T10:25:42;33.53;;;12.90;;
7199;SDS011;3641;49.082;8.200;2023-04-25T10:28:10;36.83;;;12.88;;
7199;SDS011;3641;49.082;8.200;2023-04-25T10:30:37;23.35;;;14.18;;
7199;SDS011;3641;49.082;8.200;2023-04-25T10:33:05;23.15;;;12.65;;
7199;SDS011;3641;49.082;8.200;2023-04-25T10:35:43;27.08;;;13.30;;
7199;SDS011;3641;49.082;8.200;2023-04-25T10:38:11;29.05;;;13.32;;
7199;SDS011;3641;49.082;8.200;2023-04-25T10:40:40;29.70;;;13.35;;
7199;SDS011;3641;49.082;8.200;2023-04-25T10:46:15;28.05;;;12.70;;
7199;SDS011;3641;49.082;8.200;2023-04-25T10:48:49;24.60;;;11.70;;
7199;SDS011;3641;49.082;8.200;2023-04-25T10:51:18;31.70;;;12.10;;
7199;SDS011;3641;49.082;8.200;2023-04-25T10:53:46;15.35;;;7.65;;
7199;SDS011;3641;49.082;8.200;2023-04-25T10:56:16;13.65;;;6.70;;
7199;SDS011;3641;49.082;8.200;2023-04-25T10:58:44;10.18;;;5.65;;
7199;SDS011;3641;49.082;8.200;2023-04-25T11:01:12;11.90;;;6.15;;
7199;SDS011;3641;49.082;8.200;2023-04-25T11:03:42;15.43;;;6.88;;
7199;SDS011;3641;49.082;8.200;2023-04-25T11:06:12;15.57;;;7.53;;
7199;SDS011;3641;49.082;8.200;2023-04-25T11:08:47;12.80;;;7.22;;
7199;SDS011;3641;49.082;8.200;2023-04-25T11:11:14;17.02;;;7.70;;
7199;SDS011;3641;49.082;8.200;2023-04-25T11:13:41;14.15;;;7.25;;
7199;SDS011;3641;49.082;8.200;2023-04-25T11:16:09;19.88;;;8.25;;
7199;SDS011;3641;49.082;8.200;2023-04-25T11:18:35;17.38;;;8.70;;
7199;SDS011;3641;49.082;8.200;2023-04-25T11:21:03;19.38;;;8.55;;
7199;SDS011;3641;49.082;8.200;2023-04-25T11:23:29;21.70;;;8.55;;
7199;SDS011;3641;49.082;8.200;2023-04-25T11:25:56;16.13;;;9.23;;
7199;SDS011;3641;49.082;8.200;2023-04-25T11:28:25;12.88;;;6.82;;
7199;SDS011;3641;49.082;8.200;2023-04-25T11:30:52;9.52;;;5.68;;
7199;SDS011;3641;49.082;8.200;2023-04-25T11:33:24;8.77;;;5.40;;
7199;SDS011;3641;49.082;8.200;2023-04-25T11:35:52;8.75;;;4.90;;
7199;SDS011;3641;49.082;8.200;2023-04-25T11:38:20;9.20;;;4.70;;
7199;SDS011;3641;49.082;8.200;2023-04-25T11:40:49;7.07;;;4.72;;
7199;SDS011;3641;49.082;8.200;2023-04-25T11:43:16;8.70;;;5.03;;
7199;SDS011;3641;49.082;8.200;2023-04-25T11:45:45;7.18;;;4.07;;
7199;SDS011;3641;49.082;8.200;2023-04-25T11:48:12;7.75;;;4.22;;
7199;SDS011;3641;49.082;8.200;2023-04-25T11:50:40;7.03;;;3.63;;
7199;SDS011;3641;49.082;8.200;2023-04-25T11:53:07;5.53;;;2.92;;
7199;SDS011;3641;49.082;8.200;2023-04-25T11:55:35;5.03;;;1.77;;
7199;SDS011;3641;49.082;8.200;2023-04-25T11:58:03;2.53;;;1.90;;
7199;SDS011;3641;49.082;8.200;2023-04-25T12:00:30;3.28;;;2.00;;
7199;SDS011;3641;49.082;8.200;2023-04-25T12:02:57;2.53;;;1.83;;
7199;SDS011;3641;49.082;8.200;2023-04-25T12:05:25;3.75;;;2.40;;
7199;SDS011;3641;49.082;8.200;2023-04-25T12:07:54;4.57;;;2.70;;
7199;SDS011;3641;49.082;8.200;2023-04-25T12:10:20;3.72;;;2.25;;
7199;SDS011;3641;49.082;8.200;2023-04-25T12:12:47;5.07;;;2.72;;
7199;SDS011;3641;49.082;8.200;2023-04-25T12:15:14;6.60;;;2.90;;
7199;SDS011;3641;49.082;8.200;2023-04-25T12:17:45;4.72;;;2.20;;
7199;SDS011;3641;49.082;8.200;2023-04-25T12:20:13;6.93;;;3.40;;
7199;SDS011;3641;49.082;8.200;2023-04-25T12:22:42;8.70;;;3.15;;
7199;SDS011;3641;49.082;8.200;2023-04-25T12:25:13;5.07;;;2.70;;
7199;SDS011;3641;49.082;8.200;2023-04-25T12:27:40;4.90;;;2.78;;
7199;SDS011;3641;49.082;8.200;2023-04-25T12:30:09;4.75;;;2.35;;
7199;SDS011;3641;49.082;8.200;2023-04-25T12:32:36;3.90;;;2.70;;
7199;SDS011;3641;49.082;8.200;2023-04-25T12:35:03;4.35;;;2.45;;
7199;SDS011;3641;49.082;8.200;2023-04-25T12:37:31;5.05;;;2.53;;
7199;SDS011;3641;49.082;8.200;2023-04-25T12:39:58;5.28;;;2.65;;
7199;SDS011;3641;49.082;8.200;2023-04-25T12:42:25;7.68;;;2.85;;
7199;SDS011;3641;49.082;8.200;2023-04-25T12:44:52;6.35;;;2.80;;
7199;SDS011;3641;49.082;8.200;2023-04-25T12:47:19;5.78;;;2.85;;
7199;SDS011;3641;49.082;8.200;2023-04-25T12:49:45;5.20;;;3.10;;
7199;SDS011;3641;49.082;8.200;2023-04-25T12:52:12;5.32;;;2.53;;
7199;SDS011;3641;49.082;8.200;2023-04-25T12:54:38;5.47;;;2.85;;
7199;SDS011;3641;49.082;8.200;2023-04-25T12:57:05;4.25;;;2.60;;
7199;SDS011;3641;49.082;8.200;2023-04-25T12:59:33;5.57;;;2.72;;
7199;SDS011;3641;49.082;8.200;2023-04-25T13:01:59;6.68;;;3.08;;
7199;SDS011;3641;49.082;8.200;2023-04-25T13:04:25;7.53;;;3.20;;
7199;SDS011;3641;49.082;8.200;2023-04-25T13:06:52;4.65;;;2.88;;
7199;SDS011;3641;49.082;8.200;2023-04-25T13:09:18;5.13;;;2.90;;
7199;SDS011;3641;49.082;8.200;2023-04-25T13:11:48;4.88;;;2.90;;
7199;SDS011;3641;49.082;8.200;2023-04-25T13:14:15;4.28;;;2.97;;
7199;SDS011;3641;49.082;8.200;2023-04-25T13:16:42;5.45;;;3.15;;
7199;SDS011;3641;49.082;8.200;2023-04-25T13:19:09;4.93;;;3.15;;
7199;SDS011;3641;49.082;8.200;2023-04-25T13:21:36;5.97;;;4.03;;
7199;SDS011;3641;49.082;8.200;2023-04-25T13:24:03;10.45;;;3.75;;
7199;SDS011;3641;49.082;8.200;2023-04-25T13:26:30;4.18;;;3.00;;
7199;SDS011;3641;49.082;8.200;2023-04-25T13:28:56;6.35;;;3.13;;
7199;SDS011;3641;49.082;8.200;2023-04-25T13:31:23;7.13;;;3.35;;
7199;SDS011;3641;49.082;8.200;2023-04-25T13:33:51;5.55;;;3.45;;
7199;SDS011;3641;49.082;8.200;2023-04-25T13:36:18;12.10;;;3.90;;
7199;SDS011;3641;49.082;8.200;2023-04-25T13:38:44;7.75;;;4.07;;
7199;SDS011;3641;49.082;8.200;2023-04-25T13:41:12;6.63;;;3.90;;
7199;SDS011;3641;49.082;8.200;2023-04-25T13:43:43;6.30;;;3.78;;
7199;SDS011;3641;49.082;8.200;2023-04-25T13:46:10;6.55;;;4.00;;
7199;SDS011;3641;49.082;8.200;2023-04-25T13:48:37;7.65;;;4.53;;
7199;SDS011;3641;49.082;8.200;2023-04-25T13:51:05;12.93;;;4.60;;
7199;SDS011;3641;49.082;8.200;2023-04-25T13:53:32;8.60;;;4.53;;
7199;SDS011;3641;49.082;8.200;2023-04-25T13:55:58;8.43;;;5.20;;
7199;SDS011;3641;49.082;8.200;2023-04-25T13:58:25;9.40;;;4.70;;
7199;SDS011;3641;49.082;8.200;2023-04-25T14:00:51;8.27;;;5.13;;
7199;SDS011;3641;49.082;8.200;2023-04-25T14:03:18;11.45;;;5.80;;
7199;SDS011;3641;49.082;8.200;2023-04-25T14:05:45;10.77;;;5.93;;
7199;SDS011;3641;49.082;8.200;2023-04-25T14:08:12;10.60;;;5.60;;
7199;SDS011;3641;49.082;8.200;2023-04-25T14:10:39;9.10;;;4.93;;
7199;SDS011;3641;49.082;8.200;2023-04-25T14:13:06;8.85;;;5.30;;
7199;SDS011;3641;49.082;8.200;2023-04-25T14:15:32;8.13;;;5.18;;
7199;SDS011;3641;49.082;8.200;2023-04-25T14:17:59;8.15;;;5.53;;
7199;SDS011;3641;49.082;8.200;2023-04-25T14:20:26;13.10;;;7.45;;
7199;SDS011;3641;49.082;8.200;2023-04-25T14:22:53;10.73;;;5.82;;
7199;SDS011;3641;49.082;8.200;2023-04-25T14:25:22;9.63;;;5.78;;
7199;SDS011;3641;49.082;8.200;2023-04-25T14:27:49;8.68;;;5.18;;
7199;SDS011;3641;49.082;8.200;2023-04-25T14:30:16;8.70;;;6.00;;
7199;SDS011;3641;49.082;8.200;2023-04-25T14:32:43;9.30;;;5.43;;
7199;SDS011;3641;49.082;8.200;2023-04-25T14:35:10;9.05;;;5.35;;
7199;SDS011;3641;49.082;8.200;2023-04-25T14:37:37;11.50;;;6.00;;
7199;SDS011;3641;49.082;8.200;2023-04-25T14:40:04;9.43;;;5.18;;
7199;SDS011;3641;49.082;8.200;2023-04-25T14:42:35;10.55;;;5.50;;
7199;SDS011;3641;49.082;8.200;2023-04-25T14:45:01;10.25;;;5.25;;
7199;SDS011;3641;49.082;8.200;2023-04-25T14:47:28;10.10;;;5.82;;
7199;SDS011;3641;49.082;8.200;2023-04-25T14:49:55;8.63;;;5.15;;
7199;SDS011;3641;49.082;8.200;2023-04-25T14:52:21;8.77;;;5.25;;
7199;SDS011;3641;49.082;8.200;2023-04-25T14:54:48;8.32;;;4.80;;
7199;SDS011;3641;49.082;8.200;2023-04-25T14:57:15;8.90;;;4.82;;
7199;SDS011;3641;49.082;8.200;2023-04-25T14:59:43;11.05;;;5.80;;
7199;SDS011;3641;49.082;8.200;2023-04-25T15:02:10;9.90;;;5.57;;
7199;SDS011;3641;49.082;8.200;2023-04-25T15:04:36;7.82;;;5.13;;
7199;SDS011;3641;49.082;8.200;2023-04-25T15:07:03;8.88;;;4.68;;
7199;SDS011;3641;49.082;8.200;2023-04-25T15:09:30;7.32;;;4.18;;